sensor_id;sensor_type;location;lat;lon;timestamp;P1;durP1;ratioP1;P2;durP2;ratioP2
25917;SDS011;13899;51.174;4.456;2023-04-30T00:01:49;7.85;;;6.53;;
25917;SDS011;13899;51.174;4.456;2023-04-30T00:04:14;7.87;;;7.00;;
25917;SDS011;13899;51.174;4.456;2023-04-30T00:06:40;6.72;;;6.13;;
25917;SDS011;13899;51.174;4.456;2023-04-30T00:09:06;6.87;;;6.27;;
25917;SDS011;13899;51.174;4.456;2023-04-30T00:11:31;10.10;;;6.97;;
25917;SDS011;13899;51.174;4.456;2023-04-30T00:13:57;9.40;;;6.73;;
25917;SDS011;13899;51.174;4.456;2023-04-30T00:16:23;7.88;;;7.05;;
25917;SDS011;13899;51.174;4.456;2023-04-30T00:18:48;6.38;;;5.82;;
25917;SDS011;13899;51.174;4.456;2023-04-30T00:21:14;7.22;;;6.60;;
25917;SDS011;13899;51.174;4.456;2023-04-30T00:23:40;8.52;;;6.72;;
25917;SDS011;13899;51.174;4.456;2023-04-30T00:26:06;8.13;;;7.38;;
25917;SDS011;13899;51.174;4.456;2023-04-30T00:28:31;7.85;;;5.90;;
25917;SDS011;13899;51.174;4.456;2023-04-30T00:30:57;6.72;;;6.07;;
25917;SDS011;13899;51.174;4.456;2023-04-30T00:33:23;8.47;;;6.83;;
25917;SDS011;13899;51.174;4.456;2023-04-30T00:35:48;6.90;;;6.20;;
25917;SDS011;13899;51.174;4.456;2023-04-30T00:38:16;7.18;;;6.47;;
25917;SDS011;13899;51.174;4.456;2023-04-30T00:40:41;9.93;;;7.05;;
25917;SDS011;13899;51.174;4.456;2023-04-30T00:43:07;7.73;;;7.03;;
25917;SDS011;13899;51.174;4.456;2023-04-30T00:45:33;10.43;;;7.00;;
25917;SDS011;13899;51.174;4.456;2023-04-30T00:47:59;8.43;;;7.37;;
25917;SDS011;13899;51.174;4.456;2023-04-30T00:50:25;7.17;;;6.20;;
25917;SDS011;13899;51.174;4.456;2023-04-30T00:52:51;7.60;;;6.50;;
25917;SDS011;13899;51.174;4.456;2023-04-30T00:55:17;10.55;;;6.93;;
25917;SDS011;13899;51.174;4.456;2023-04-30T00:57:43;7.57;;;6.87;;
25917;SDS011;13899;51.174;4.456;2023-04-30T01:00:08;7.00;;;6.32;;
25917;SDS011;13899;51.174;4.456;2023-04-30T01:02:38;8.68;;;6.88;;
25917;SDS011;13899;51.174;4.456;2023-04-30T01:05:06;7.47;;;6.47;;
25917;SDS011;13899;51.174;4.456;2023-04-30T01:08:16;8.50;;;7.13;;
25917;SDS011;13899;51.174;4.456;2023-04-30T01:11:27;8.75;;;7.15;;
25917;SDS011;13899;51.174;4.456;2023-04-30T01:31:18;8.65;;;7.75;;
25917;SDS011;13899;51.174;4.456;2023-04-30T01:33:52;8.45;;;7.65;;
25917;SDS011;13899;51.174;4.456;2023-04-30T01:40:01;9.70;;;8.70;;
25917;SDS011;13899;51.174;4.456;2023-04-30T01:48:52;9.02;;;8.20;;
25917;SDS011;13899;51.174;4.456;2023-04-30T01:51:41;9.57;;;8.57;;
25917;SDS011;13899;51.174;4.456;2023-04-30T01:54:20;10.07;;;9.20;;
25917;SDS011;13899;51.174;4.456;2023-04-30T01:56:56;9.88;;;8.73;;
25917;SDS011;13899;51.174;4.456;2023-04-30T01:59:29;9.90;;;8.90;;
25917;SDS011;13899;51.174;4.456;2023-04-30T02:01:57;9.77;;;8.77;;
25917;SDS011;13899;51.174;4.456;2023-04-30T02:04:23;9.43;;;8.53;;
25917;SDS011;13899;51.174;4.456;2023-04-30T02:06:49;10.68;;;9.13;;
25917;SDS011;13899;51.174;4.456;2023-04-30T02:09:14;11.73;;;10.45;;
25917;SDS011;13899;51.174;4.456;2023-04-30T02:11:40;10.40;;;9.32;;
25917;SDS011;13899;51.174;4.456;2023-04-30T02:14:06;11.15;;;8.05;;
25917;SDS011;13899;51.174;4.456;2023-04-30T02:16:31;10.20;;;9.10;;
25917;SDS011;13899;51.174;4.456;2023-04-30T02:18:58;13.27;;;9.35;;
25917;SDS011;13899;51.174;4.456;2023-04-30T02:21:24;11.07;;;8.93;;
25917;SDS011;13899;51.174;4.456;2023-04-30T02:23:51;12.65;;;9.80;;
25917;SDS011;13899;51.174;4.456;2023-04-30T02:26:17;13.32;;;9.50;;
25917;SDS011;13899;51.174;4.456;2023-04-30T02:28:42;11.02;;;9.93;;
25917;SDS011;13899;51.174;4.456;2023-04-30T02:31:08;10.50;;;9.40;;
25917;SDS011;13899;51.174;4.456;2023-04-30T02:33:34;11.05;;;9.95;;
25917;SDS011;13899;51.174;4.456;2023-04-30T02:36:00;10.63;;;9.53;;
25917;SDS011;13899;51.174;4.456;2023-04-30T02:38:26;10.50;;;9.43;;
25917;SDS011;13899;51.174;4.456;2023-04-30T02:40:51;12.40;;;9.90;;
25917;SDS011;13899;51.174;4.456;2023-04-30T02:43:17;13.03;;;10.07;;
25917;SDS011;13899;51.174;4.456;2023-04-30T02:45:43;11.38;;;10.20;;
25917;SDS011;13899;51.174;4.456;2023-04-30T02:48:08;11.18;;;10.05;;
25917;SDS011;13899;51.174;4.456;2023-04-30T02:50:34;14.63;;;11.90;;
25917;SDS011;13899;51.174;4.456;2023-04-30T02:53:00;12.13;;;10.93;;
25917;SDS011;13899;51.174;4.456;2023-04-30T02:55:26;13.05;;;10.43;;
25917;SDS011;13899;51.174;4.456;2023-04-30T02:57:51;11.70;;;10.50;;
25917;SDS011;13899;51.174;4.456;2023-04-30T03:00:17;12.80;;;11.50;;
25917;SDS011;13899;51.174;4.456;2023-04-30T03:02:43;12.23;;;11.03;;
25917;SDS011;13899;51.174;4.456;2023-04-30T03:05:10;13.50;;;12.10;;
25917;SDS011;13899;51.174;4.456;2023-04-30T03:07:35;14.43;;;11.70;;
25917;SDS011;13899;51.174;4.456;2023-04-30T03:10:01;13.53;;;11.17;;
25917;SDS011;13899;51.174;4.456;2023-04-30T03:12:27;12.45;;;10.57;;
25917;SDS011;13899;51.174;4.456;2023-04-30T03:14:53;11.87;;;10.67;;
25917;SDS011;13899;51.174;4.456;2023-04-30T03:17:19;13.10;;;11.70;;
25917;SDS011;13899;51.174;4.456;2023-04-30T03:19:44;15.17;;;11.90;;
25917;SDS011;13899;51.174;4.456;2023-04-30T03:22:10;17.50;;;13.10;;
25917;SDS011;13899;51.174;4.456;2023-04-30T03:24:36;13.52;;;12.10;;
25917;SDS011;13899;51.174;4.456;2023-04-30T03:27:02;13.53;;;11.97;;
25917;SDS011;13899;51.174;4.456;2023-04-30T03:29:27;15.03;;;12.50;;
25917;SDS011;13899;51.174;4.456;2023-04-30T03:31:53;15.40;;;12.02;;
25917;SDS011;13899;51.174;4.456;2023-04-30T03:34:19;13.95;;;12.50;;
25917;SDS011;13899;51.174;4.456;2023-04-30T03:36:45;14.70;;;12.70;;
25917;SDS011;13899;51.174;4.456;2023-04-30T03:39:10;14.60;;;13.10;;
25917;SDS011;13899;51.174;4.456;2023-04-30T03:41:36;14.07;;;12.52;;
25917;SDS011;13899;51.174;4.456;2023-04-30T03:44:02;11.43;;;10.33;;
25917;SDS011;13899;51.174;4.456;2023-04-30T03:46:28;16.13;;;13.40;;
25917;SDS011;13899;51.174;4.456;2023-04-30T03:48:54;15.93;;;12.97;;
25917;SDS011;13899;51.174;4.456;2023-04-30T03:51:20;16.13;;;14.43;;
25917;SDS011;13899;51.174;4.456;2023-04-30T03:53:46;18.97;;;14.27;;
25917;SDS011;13899;51.174;4.456;2023-04-30T03:56:11;13.98;;;12.65;;
25917;SDS011;13899;51.174;4.456;2023-04-30T03:58:38;19.10;;;13.43;;
25917;SDS011;13899;51.174;4.456;2023-04-30T04:01:03;15.05;;;13.48;;
25917;SDS011;13899;51.174;4.456;2023-04-30T04:03:29;14.93;;;13.37;;
25917;SDS011;13899;51.174;4.456;2023-04-30T04:05:57;15.85;;;14.05;;
25917;SDS011;13899;51.174;4.456;2023-04-30T04:08:23;18.67;;;13.70;;
25917;SDS011;13899;51.174;4.456;2023-04-30T04:10:49;21.73;;;15.70;;
25917;SDS011;13899;51.174;4.456;2023-04-30T04:13:15;21.77;;;15.13;;
25917;SDS011;13899;51.174;4.456;2023-04-30T04:15:40;17.60;;;14.33;;
25917;SDS011;13899;51.174;4.456;2023-04-30T04:18:06;16.13;;;14.43;;
25917;SDS011;13899;51.174;4.456;2023-04-30T04:20:32;16.48;;;14.73;;
25917;SDS011;13899;51.174;4.456;2023-04-30T04:22:58;23.47;;;15.30;;
25917;SDS011;13899;51.174;4.456;2023-04-30T04:25:24;16.37;;;14.53;;
25917;SDS011;13899;51.174;4.456;2023-04-30T04:27:51;16.48;;;14.77;;
25917;SDS011;13899;51.174;4.456;2023-04-30T04:30:17;20.20;;;15.37;;
25917;SDS011;13899;51.174;4.456;2023-04-30T04:32:43;16.17;;;14.33;;
25917;SDS011;13899;51.174;4.456;2023-04-30T04:35:14;17.77;;;14.93;;
25917;SDS011;13899;51.174;4.456;2023-04-30T04:37:40;20.50;;;17.30;;
25917;SDS011;13899;51.174;4.456;2023-04-30T04:40:06;17.67;;;15.70;;
25917;SDS011;13899;51.174;4.456;2023-04-30T04:42:33;17.00;;;15.20;;
25917;SDS011;13899;51.174;4.456;2023-04-30T04:44:58;18.58;;;16.52;;
25917;SDS011;13899;51.174;4.456;2023-04-30T04:47:24;19.60;;;16.90;;
25917;SDS011;13899;51.174;4.456;2023-04-30T04:49:50;20.67;;;15.03;;
25917;SDS011;13899;51.174;4.456;2023-04-30T04:52:16;17.83;;;15.93;;
25917;SDS011;13899;51.174;4.456;2023-04-30T04:54:42;19.27;;;15.93;;
25917;SDS011;13899;51.174;4.456;2023-04-30T04:57:08;23.33;;;17.40;;
25917;SDS011;13899;51.174;4.456;2023-04-30T04:59:34;19.05;;;16.88;;
25917;SDS011;13899;51.174;4.456;2023-04-30T05:01:59;18.83;;;16.90;;
25917;SDS011;13899;51.174;4.456;2023-04-30T05:04:25;18.37;;;16.10;;
25917;SDS011;13899;51.174;4.456;2023-04-30T05:06:52;22.77;;;17.58;;
25917;SDS011;13899;51.174;4.456;2023-04-30T05:09:18;22.80;;;16.58;;
25917;SDS011;13899;51.174;4.456;2023-04-30T05:11:44;23.77;;;18.23;;
25917;SDS011;13899;51.174;4.456;2023-04-30T05:14:12;19.73;;;17.70;;
25917;SDS011;13899;51.174;4.456;2023-04-30T05:16:37;15.50;;;12.47;;
25917;SDS011;13899;51.174;4.456;2023-04-30T05:19:03;18.83;;;16.73;;
25917;SDS011;13899;51.174;4.456;2023-04-30T05:21:29;20.85;;;16.48;;
25917;SDS011;13899;51.174;4.456;2023-04-30T05:23:56;20.52;;;16.40;;
25917;SDS011;13899;51.174;4.456;2023-04-30T05:26:23;20.88;;;17.75;;
25917;SDS011;13899;51.174;4.456;2023-04-30T05:28:48;17.27;;;15.63;;
25917;SDS011;13899;51.174;4.456;2023-04-30T05:31:16;22.15;;;17.38;;
25917;SDS011;13899;51.174;4.456;2023-04-30T05:33:42;19.47;;;17.60;;
25917;SDS011;13899;51.174;4.456;2023-04-30T05:36:08;18.75;;;16.52;;
25917;SDS011;13899;51.174;4.456;2023-04-30T05:38:35;17.85;;;16.10;;
25917;SDS011;13899;51.174;4.456;2023-04-30T05:41:01;20.38;;;18.00;;
25917;SDS011;13899;51.174;4.456;2023-04-30T05:43:27;18.00;;;16.13;;
25917;SDS011;13899;51.174;4.456;2023-04-30T05:45:53;20.23;;;17.37;;
25917;SDS011;13899;51.174;4.456;2023-04-30T05:48:20;19.05;;;17.05;;
25917;SDS011;13899;51.174;4.456;2023-04-30T05:50:45;19.77;;;17.70;;
25917;SDS011;13899;51.174;4.456;2023-04-30T05:53:12;20.30;;;18.27;;
25917;SDS011;13899;51.174;4.456;2023-04-30T05:58:04;21.00;;;17.20;;
25917;SDS011;13899;51.174;4.456;2023-04-30T06:00:31;19.38;;;17.38;;
25917;SDS011;13899;51.174;4.456;2023-04-30T06:05:23;21.17;;;17.40;;
25917;SDS011;13899;51.174;4.456;2023-04-30T06:07:48;25.48;;;17.73;;
25917;SDS011;13899;51.174;4.456;2023-04-30T06:10:14;19.17;;;17.20;;
25917;SDS011;13899;51.174;4.456;2023-04-30T06:12:40;20.75;;;18.65;;
25917;SDS011;13899;51.174;4.456;2023-04-30T06:15:06;18.52;;;16.77;;
25917;SDS011;13899;51.174;4.456;2023-04-30T06:17:32;19.23;;;17.20;;
25917;SDS011;13899;51.174;4.456;2023-04-30T06:19:57;19.08;;;17.02;;
25917;SDS011;13899;51.174;4.456;2023-04-30T06:22:26;18.35;;;16.63;;
25917;SDS011;13899;51.174;4.456;2023-04-30T06:24:53;16.98;;;15.43;;
25917;SDS011;13899;51.174;4.456;2023-04-30T06:27:18;18.50;;;16.55;;
25917;SDS011;13899;51.174;4.456;2023-04-30T06:29:44;18.27;;;16.38;;
25917;SDS011;13899;51.174;4.456;2023-04-30T06:32:10;18.02;;;16.33;;
25917;SDS011;13899;51.174;4.456;2023-04-30T06:34:37;18.70;;;16.93;;
25917;SDS011;13899;51.174;4.456;2023-04-30T06:37:02;17.60;;;15.88;;
25917;SDS011;13899;51.174;4.456;2023-04-30T06:39:28;16.48;;;14.98;;
25917;SDS011;13899;51.174;4.456;2023-04-30T06:41:54;18.30;;;16.10;;
25917;SDS011;13899;51.174;4.456;2023-04-30T06:44:20;17.33;;;15.83;;
25917;SDS011;13899;51.174;4.456;2023-04-30T06:46:46;17.58;;;15.90;;
25917;SDS011;13899;51.174;4.456;2023-04-30T06:49:12;16.85;;;15.45;;
25917;SDS011;13899;51.174;4.456;2023-04-30T06:51:37;18.15;;;15.82;;
25917;SDS011;13899;51.174;4.456;2023-04-30T06:54:07;16.67;;;14.88;;
25917;SDS011;13899;51.174;4.456;2023-04-30T06:56:33;22.55;;;16.88;;
25917;SDS011;13899;51.174;4.456;2023-04-30T06:58:59;15.77;;;14.17;;
25917;SDS011;13899;51.174;4.456;2023-04-30T07:01:24;16.05;;;14.52;;
25917;SDS011;13899;51.174;4.456;2023-04-30T07:03:50;16.92;;;14.85;;
25917;SDS011;13899;51.174;4.456;2023-04-30T07:06:18;16.55;;;14.93;;
25917;SDS011;13899;51.174;4.456;2023-04-30T07:08:45;16.10;;;14.57;;
25917;SDS011;13899;51.174;4.456;2023-04-30T07:11:10;15.70;;;14.30;;
25917;SDS011;13899;51.174;4.456;2023-04-30T07:13:36;16.58;;;14.85;;
25917;SDS011;13899;51.174;4.456;2023-04-30T07:16:03;15.23;;;13.70;;
25917;SDS011;13899;51.174;4.456;2023-04-30T07:18:29;15.20;;;13.80;;
25917;SDS011;13899;51.174;4.456;2023-04-30T07:20:55;15.55;;;14.05;;
25917;SDS011;13899;51.174;4.456;2023-04-30T07:23:21;14.70;;;13.43;;
25917;SDS011;13899;51.174;4.456;2023-04-30T07:25:47;15.95;;;14.35;;
25917;SDS011;13899;51.174;4.456;2023-04-30T07:28:17;15.90;;;13.95;;
25917;SDS011;13899;51.174;4.456;2023-04-30T07:30:44;15.95;;;14.45;;
25917;SDS011;13899;51.174;4.456;2023-04-30T07:33:13;14.07;;;12.68;;
25917;SDS011;13899;51.174;4.456;2023-04-30T07:35:39;15.57;;;13.85;;
25917;SDS011;13899;51.174;4.456;2023-04-30T07:38:05;14.80;;;13.60;;
25917;SDS011;13899;51.174;4.456;2023-04-30T07:40:31;15.45;;;14.00;;
25917;SDS011;13899;51.174;4.456;2023-04-30T07:42:57;19.83;;;13.40;;
25917;SDS011;13899;51.174;4.456;2023-04-30T07:45:22;15.30;;;13.93;;
25917;SDS011;13899;51.174;4.456;2023-04-30T07:47:48;15.75;;;14.07;;
25917;SDS011;13899;51.174;4.456;2023-04-30T07:50:13;16.40;;;15.00;;
25917;SDS011;13899;51.174;4.456;2023-04-30T07:52:40;18.47;;;13.93;;
25917;SDS011;13899;51.174;4.456;2023-04-30T07:55:06;15.23;;;13.82;;
25917;SDS011;13899;51.174;4.456;2023-04-30T07:57:32;15.10;;;13.80;;
25917;SDS011;13899;51.174;4.456;2023-04-30T07:59:58;14.90;;;13.50;;
25917;SDS011;13899;51.174;4.456;2023-04-30T08:02:23;15.73;;;14.30;;
25917;SDS011;13899;51.174;4.456;2023-04-30T08:04:50;14.60;;;13.30;;
25917;SDS011;13899;51.174;4.456;2023-04-30T08:07:16;14.33;;;13.13;;
25917;SDS011;13899;51.174;4.456;2023-04-30T08:09:42;15.13;;;13.60;;
25917;SDS011;13899;51.174;4.456;2023-04-30T08:12:08;15.68;;;14.15;;
25917;SDS011;13899;51.174;4.456;2023-04-30T08:14:34;14.30;;;12.80;;
25917;SDS011;13899;51.174;4.456;2023-04-30T08:16:59;15.68;;;13.98;;
25917;SDS011;13899;51.174;4.456;2023-04-30T08:19:26;16.92;;;15.30;;
25917;SDS011;13899;51.174;4.456;2023-04-30T08:21:55;14.63;;;13.18;;
25917;SDS011;13899;51.174;4.456;2023-04-30T08:24:21;22.97;;;21.53;;
25917;SDS011;13899;51.174;4.456;2023-04-30T08:26:47;14.55;;;12.65;;
25917;SDS011;13899;51.174;4.456;2023-04-30T08:29:12;13.65;;;12.35;;
25917;SDS011;13899;51.174;4.456;2023-04-30T08:31:38;20.67;;;19.27;;
25917;SDS011;13899;51.174;4.456;2023-04-30T08:34:13;14.90;;;13.73;;
25917;SDS011;13899;51.174;4.456;2023-04-30T08:36:39;17.65;;;15.95;;
25917;SDS011;13899;51.174;4.456;2023-04-30T08:39:05;19.48;;;18.00;;
25917;SDS011;13899;51.174;4.456;2023-04-30T08:41:32;12.93;;;11.82;;
25917;SDS011;13899;51.174;4.456;2023-04-30T08:44:00;22.98;;;17.45;;
25917;SDS011;13899;51.174;4.456;2023-04-30T08:46:27;13.10;;;11.90;;
25917;SDS011;13899;51.174;4.456;2023-04-30T08:48:55;12.13;;;10.98;;
25917;SDS011;13899;51.174;4.456;2023-04-30T08:51:28;13.83;;;12.47;;
25917;SDS011;13899;51.174;4.456;2023-04-30T08:59:18;11.93;;;10.70;;
25917;SDS011;13899;51.174;4.456;2023-04-30T09:02:21;11.45;;;10.30;;
25917;SDS011;13899;51.174;4.456;2023-04-30T09:04:58;17.00;;;15.90;;
25917;SDS011;13899;51.174;4.456;2023-04-30T09:08:45;12.95;;;12.00;;
25917;SDS011;13899;51.174;4.456;2023-04-30T09:11:32;8.60;;;7.90;;
25917;SDS011;13899;51.174;4.456;2023-04-30T09:14:36;9.15;;;8.35;;
25917;SDS011;13899;51.174;4.456;2023-04-30T09:17:20;8.05;;;7.30;;
25917;SDS011;13899;51.174;4.456;2023-04-30T09:22:44;7.20;;;6.60;;
25917;SDS011;13899;51.174;4.456;2023-04-30T09:28:26;8.05;;;7.25;;
25917;SDS011;13899;51.174;4.456;2023-04-30T09:30:55;9.43;;;8.73;;
25917;SDS011;13899;51.174;4.456;2023-04-30T09:33:21;10.00;;;9.20;;
25917;SDS011;13899;51.174;4.456;2023-04-30T09:35:47;8.15;;;7.38;;
25917;SDS011;13899;51.174;4.456;2023-04-30T09:38:27;7.63;;;6.87;;
25917;SDS011;13899;51.174;4.456;2023-04-30T09:40:54;8.20;;;7.55;;
25917;SDS011;13899;51.174;4.456;2023-04-30T09:43:21;6.72;;;6.13;;
25917;SDS011;13899;51.174;4.456;2023-04-30T09:45:48;9.30;;;8.50;;
25917;SDS011;13899;51.174;4.456;2023-04-30T09:48:15;8.25;;;7.57;;
25917;SDS011;13899;51.174;4.456;2023-04-30T09:50:45;6.70;;;6.20;;
25917;SDS011;13899;51.174;4.456;2023-04-30T09:53:11;9.15;;;8.45;;
25917;SDS011;13899;51.174;4.456;2023-04-30T09:55:43;5.63;;;5.13;;
25917;SDS011;13899;51.174;4.456;2023-04-30T09:58:13;8.02;;;7.53;;
25917;SDS011;13899;51.174;4.456;2023-04-30T10:00:40;9.55;;;8.73;;
25917;SDS011;13899;51.174;4.456;2023-04-30T10:03:08;5.68;;;5.03;;
25917;SDS011;13899;51.174;4.456;2023-04-30T10:05:44;4.97;;;4.05;;
25917;SDS011;13899;51.174;4.456;2023-04-30T10:08:35;6.28;;;5.78;;
25917;SDS011;13899;51.174;4.456;2023-04-30T10:11:04;10.80;;;5.05;;
25917;SDS011;13899;51.174;4.456;2023-04-30T10:19:30;3.00;;;2.50;;
25917;SDS011;13899;51.174;4.456;2023-04-30T10:21:58;3.47;;;3.17;;
25917;SDS011;13899;51.174;4.456;2023-04-30T10:24:29;5.47;;;4.05;;
25917;SDS011;13899;51.174;4.456;2023-04-30T10:26:59;4.55;;;4.15;;
25917;SDS011;13899;51.174;4.456;2023-04-30T10:29:26;8.80;;;8.30;;
25917;SDS011;13899;51.174;4.456;2023-04-30T10:31:53;7.82;;;7.35;;
25917;SDS011;13899;51.174;4.456;2023-04-30T10:40:02;3.13;;;2.38;;
25917;SDS011;13899;51.174;4.456;2023-04-30T10:42:34;1.90;;;1.40;;
25917;SDS011;13899;51.174;4.456;2023-04-30T10:45:02;3.00;;;1.63;;
25917;SDS011;13899;51.174;4.456;2023-04-30T10:47:28;2.00;;;1.40;;
25917;SDS011;13899;51.174;4.456;2023-04-30T10:50:01;1.95;;;1.45;;
25917;SDS011;13899;51.174;4.456;2023-04-30T10:52:28;2.65;;;1.67;;
25917;SDS011;13899;51.174;4.456;2023-04-30T10:54:54;4.50;;;4.30;;
25917;SDS011;13899;51.174;4.456;2023-04-30T10:57:20;1.73;;;1.00;;
25917;SDS011;13899;51.174;4.456;2023-04-30T11:02:15;1.60;;;1.30;;
25917;SDS011;13899;51.174;4.456;2023-04-30T11:07:33;6.45;;;6.15;;
25917;SDS011;13899;51.174;4.456;2023-04-30T11:09:59;2.55;;;1.38;;
25917;SDS011;13899;51.174;4.456;2023-04-30T11:12:26;1.17;;;0.77;;
25917;SDS011;13899;51.174;4.456;2023-04-30T11:15:01;1.23;;;1.08;;
25917;SDS011;13899;51.174;4.456;2023-04-30T11:17:30;10.07;;;9.52;;
25917;SDS011;13899;51.174;4.456;2023-04-30T11:19:59;1.60;;;1.50;;
25917;SDS011;13899;51.174;4.456;2023-04-30T11:22:30;18.27;;;17.58;;
25917;SDS011;13899;51.174;4.456;2023-04-30T11:25:05;5.60;;;5.30;;
25917;SDS011;13899;51.174;4.456;2023-04-30T11:27:35;6.80;;;6.50;;
25917;SDS011;13899;51.174;4.456;2023-04-30T11:30:03;2.50;;;2.22;;
25917;SDS011;13899;51.174;4.456;2023-04-30T11:32:52;1.65;;;1.17;;
25917;SDS011;13899;51.174;4.456;2023-04-30T11:35:18;0.90;;;0.80;;
25917;SDS011;13899;51.174;4.456;2023-04-30T11:37:44;1.17;;;0.90;;
25917;SDS011;13899;51.174;4.456;2023-04-30T11:40:12;1.80;;;1.10;;
25917;SDS011;13899;51.174;4.456;2023-04-30T11:42:42;1.10;;;1.00;;
25917;SDS011;13899;51.174;4.456;2023-04-30T11:45:09;1.23;;;0.95;;
25917;SDS011;13899;51.174;4.456;2023-04-30T11:50:12;1.40;;;1.10;;
25917;SDS011;13899;51.174;4.456;2023-04-30T11:52:39;2.10;;;1.42;;
25917;SDS011;13899;51.174;4.456;2023-04-30T11:55:13;1.40;;;1.30;;
25917;SDS011;13899;51.174;4.456;2023-04-30T11:57:44;3.22;;;3.13;;
25917;SDS011;13899;51.174;4.456;2023-04-30T12:00:24;3.25;;;3.15;;
25917;SDS011;13899;51.174;4.456;2023-04-30T12:02:59;2.35;;;2.15;;
25917;SDS011;13899;51.174;4.456;2023-04-30T12:05:31;3.55;;;3.38;;
25917;SDS011;13899;51.174;4.456;2023-04-30T12:08:01;1.73;;;1.60;;
25917;SDS011;13899;51.174;4.456;2023-04-30T12:10:30;1.65;;;1.55;;
25917;SDS011;13899;51.174;4.456;2023-04-30T12:12:56;2.50;;;1.55;;
25917;SDS011;13899;51.174;4.456;2023-04-30T12:15:23;2.50;;;2.20;;
25917;SDS011;13899;51.174;4.456;2023-04-30T12:18:09;1.88;;;1.63;;
25917;SDS011;13899;51.174;4.456;2023-04-30T12:20:50;2.20;;;2.05;;
25917;SDS011;13899;51.174;4.456;2023-04-30T12:23:18;2.72;;;2.53;;
25917;SDS011;13899;51.174;4.456;2023-04-30T12:25:53;7.30;;;7.00;;
25917;SDS011;13899;51.174;4.456;2023-04-30T12:28:45;2.35;;;1.73;;
25917;SDS011;13899;51.174;4.456;2023-04-30T12:31:39;4.60;;;1.02;;
25917;SDS011;13899;51.174;4.456;2023-04-30T12:34:33;1.58;;;0.90;;
25917;SDS011;13899;51.174;4.456;2023-04-30T12:37:25;13.65;;;12.75;;
25917;SDS011;13899;51.174;4.456;2023-04-30T12:39:56;7.28;;;6.97;;
25917;SDS011;13899;51.174;4.456;2023-04-30T12:42:48;3.78;;;3.47;;
25917;SDS011;13899;51.174;4.456;2023-04-30T12:48:43;1.00;;;0.90;;
25917;SDS011;13899;51.174;4.456;2023-04-30T12:51:41;2.75;;;0.80;;
25917;SDS011;13899;51.174;4.456;2023-04-30T13:01:02;1.67;;;1.10;;
25917;SDS011;13899;51.174;4.456;2023-04-30T13:04:06;1.10;;;1.00;;
25917;SDS011;13899;51.174;4.456;2023-04-30T13:09:35;1.27;;;0.80;;
25917;SDS011;13899;51.174;4.456;2023-04-30T13:12:27;1.48;;;1.10;;
25917;SDS011;13899;51.174;4.456;2023-04-30T13:15:16;1.30;;;1.00;;
25917;SDS011;13899;51.174;4.456;2023-04-30T13:28:09;2.85;;;2.75;;
25917;SDS011;13899;51.174;4.456;2023-04-30T13:30:44;3.60;;;2.97;;
25917;SDS011;13899;51.174;4.456;2023-04-30T13:33:32;2.05;;;1.85;;
25917;SDS011;13899;51.174;4.456;2023-04-30T13:35:58;1.60;;;1.37;;
25917;SDS011;13899;51.174;4.456;2023-04-30T13:38:24;2.20;;;1.50;;
25917;SDS011;13899;51.174;4.456;2023-04-30T13:40:49;3.20;;;3.00;;
25917;SDS011;13899;51.174;4.456;2023-04-30T13:43:15;3.53;;;3.33;;
25917;SDS011;13899;51.174;4.456;2023-04-30T13:45:41;1.55;;;1.13;;
25917;SDS011;13899;51.174;4.456;2023-04-30T13:48:07;2.23;;;2.10;;
25917;SDS011;13899;51.174;4.456;2023-04-30T13:50:32;2.90;;;2.70;;
25917;SDS011;13899;51.174;4.456;2023-04-30T13:55:26;2.78;;;2.58;;
25917;SDS011;13899;51.174;4.456;2023-04-30T13:57:52;1.73;;;1.63;;
25917;SDS011;13899;51.174;4.456;2023-04-30T14:00:19;1.63;;;1.40;;
25917;SDS011;13899;51.174;4.456;2023-04-30T14:02:50;1.88;;;1.60;;
25917;SDS011;13899;51.174;4.456;2023-04-30T14:05:16;2.85;;;2.65;;
25917;SDS011;13899;51.174;4.456;2023-04-30T14:07:41;1.93;;;1.80;;
25917;SDS011;13899;51.174;4.456;2023-04-30T14:15:19;1.70;;;1.50;;
25917;SDS011;13899;51.174;4.456;2023-04-30T14:18:07;2.38;;;1.38;;
25917;SDS011;13899;51.174;4.456;2023-04-30T14:20:53;6.70;;;6.40;;
25917;SDS011;13899;51.174;4.456;2023-04-30T14:23:24;5.70;;;5.50;;
25917;SDS011;13899;51.174;4.456;2023-04-30T14:25:54;4.90;;;4.60;;
25917;SDS011;13899;51.174;4.456;2023-04-30T14:28:52;2.92;;;2.83;;
25917;SDS011;13899;51.174;4.456;2023-04-30T14:31:26;4.63;;;4.40;;
25917;SDS011;13899;51.174;4.456;2023-04-30T14:34:11;1.80;;;1.10;;
25917;SDS011;13899;51.174;4.456;2023-04-30T14:36:44;2.50;;;2.40;;
25917;SDS011;13899;51.174;4.456;2023-04-30T14:39:58;1.05;;;0.90;;
25917;SDS011;13899;51.174;4.456;2023-04-30T14:42:27;3.45;;;3.13;;
25917;SDS011;13899;51.174;4.456;2023-04-30T14:45:00;1.25;;;1.15;;
25917;SDS011;13899;51.174;4.456;2023-04-30T14:48:13;2.08;;;1.50;;
25917;SDS011;13899;51.174;4.456;2023-04-30T14:50:54;1.67;;;1.58;;
25917;SDS011;13899;51.174;4.456;2023-04-30T14:53:20;2.23;;;1.10;;
25917;SDS011;13899;51.174;4.456;2023-04-30T14:55:45;1.93;;;0.90;;
25917;SDS011;13899;51.174;4.456;2023-04-30T14:58:11;2.03;;;1.47;;
25917;SDS011;13899;51.174;4.456;2023-04-30T15:00:37;1.50;;;0.97;;
25917;SDS011;13899;51.174;4.456;2023-04-30T15:03:02;1.30;;;1.10;;
25917;SDS011;13899;51.174;4.456;2023-04-30T15:05:29;2.97;;;2.63;;
25917;SDS011;13899;51.174;4.456;2023-04-30T15:08:10;3.00;;;2.75;;
25917;SDS011;13899;51.174;4.456;2023-04-30T15:10:43;2.25;;;1.83;;
25917;SDS011;13899;51.174;4.456;2023-04-30T15:13:12;2.67;;;1.40;;
25917;SDS011;13899;51.174;4.456;2023-04-30T15:15:51;3.10;;;1.60;;
25917;SDS011;13899;51.174;4.456;2023-04-30T15:19:07;2.83;;;1.55;;
25917;SDS011;13899;51.174;4.456;2023-04-30T15:21:38;1.75;;;1.20;;
25917;SDS011;13899;51.174;4.456;2023-04-30T15:24:10;2.88;;;1.95;;
25917;SDS011;13899;51.174;4.456;2023-04-30T15:26:45;1.38;;;1.27;;
25917;SDS011;13899;51.174;4.456;2023-04-30T15:29:18;2.67;;;1.70;;
25917;SDS011;13899;51.174;4.456;2023-04-30T15:31:44;1.48;;;1.38;;
25917;SDS011;13899;51.174;4.456;2023-04-30T15:34:13;1.47;;;1.17;;
25917;SDS011;13899;51.174;4.456;2023-04-30T15:36:48;1.50;;;1.40;;
25917;SDS011;13899;51.174;4.456;2023-04-30T15:39:14;2.35;;;1.35;;
25917;SDS011;13899;51.174;4.456;2023-04-30T15:41:40;1.15;;;1.05;;
25917;SDS011;13899;51.174;4.456;2023-04-30T15:44:05;2.90;;;2.73;;
25917;SDS011;13899;51.174;4.456;2023-04-30T15:46:37;5.30;;;1.57;;
25917;SDS011;13899;51.174;4.456;2023-04-30T15:49:03;1.70;;;1.00;;
25917;SDS011;13899;51.174;4.456;2023-04-30T15:51:28;1.43;;;1.20;;
25917;SDS011;13899;51.174;4.456;2023-04-30T15:53:54;2.53;;;1.30;;
25917;SDS011;13899;51.174;4.456;2023-04-30T15:56:20;1.42;;;0.90;;
25917;SDS011;13899;51.174;4.456;2023-04-30T15:58:50;2.47;;;1.00;;
25917;SDS011;13899;51.174;4.456;2023-04-30T16:01:17;2.47;;;1.45;;
25917;SDS011;13899;51.174;4.456;2023-04-30T16:03:43;2.50;;;1.20;;
25917;SDS011;13899;51.174;4.456;2023-04-30T16:06:08;2.10;;;1.07;;
25917;SDS011;13899;51.174;4.456;2023-04-30T16:08:34;2.75;;;2.53;;
25917;SDS011;13899;51.174;4.456;2023-04-30T16:11:01;2.10;;;1.30;;
25917;SDS011;13899;51.174;4.456;2023-04-30T16:15:56;1.35;;;1.20;;
25917;SDS011;13899;51.174;4.456;2023-04-30T16:18:21;2.10;;;1.90;;
25917;SDS011;13899;51.174;4.456;2023-04-30T16:20:48;3.67;;;2.78;;
25917;SDS011;13899;51.174;4.456;2023-04-30T16:23:15;2.67;;;1.60;;
25917;SDS011;13899;51.174;4.456;2023-04-30T16:25:41;1.83;;;1.20;;
25917;SDS011;13899;51.174;4.456;2023-04-30T16:28:07;2.07;;;1.30;;